Perdido Beach, Alabama
Current Conditions -  °F | °C
As of 8:55 PM on Friday 19 Dec 2014 (Local Time) from KJKA Reporting Station
Light Rain Light Rain  
Wind Chill: 45°   Ceiling: 2000
Heat Index: 48°   Visibility: 10mi
Dew Point: 47°   Wind: 7mph
Humidity: 95%   Direction: 30°NNE
Pressure: 30.12"   Gusts: NA
Location:  30.4162°N, 87.5594°W
Report Text: KJKA 200255Z AUTO 03006KT 10SM -RA BKN020 OVC050 09/08 A3012 RMK AO2 P0002 60005 T00900083
Loading
Personal Weather Stations






























Interactive Weather Map New forecast layout! Learn more

10-Day Weather Forecast

Advertisements
Track Severe Weather on mobile